sensor_id;sensor_type;location;lat;lon;timestamp;pressure;altitude;pressure_sealevel;temperature;humidity
69624;BME280;56843;52.020;5.670;2023-03-25T00:01:13;99928.00;;;12.30;61.97
69624;BME280;56843;52.020;5.670;2023-03-25T00:02:47;99928.34;;;12.28;62.19
69624;BME280;56843;52.020;5.670;2023-03-25T00:04:18;99930.59;;;12.26;61.90
69624;BME280;56843;52.020;5.670;2023-03-25T00:05:48;99930.69;;;12.30;62.17
69624;BME280;56843;52.020;5.670;2023-03-25T00:07:19;99929.47;;;12.27;62.08
69624;BME280;56843;52.020;5.670;2023-03-25T00:08:50;99930.59;;;12.26;62.10
69624;BME280;56843;52.020;5.670;2023-03-25T00:10:21;99930.59;;;12.26;62.15
69624;BME280;56843;52.020;5.670;2023-03-25T00:11:52;99930.59;;;12.26;62.26
69624;BME280;56843;52.020;5.670;2023-03-25T00:13:22;99930.97;;;12.25;62.10
69624;BME280;56843;52.020;5.670;2023-03-25T00:14:53;99941.66;;;12.25;62.04
69624;BME280;56843;52.020;5.670;2023-03-25T00:16:23;99933.63;;;12.25;62.10
69624;BME280;56843;52.020;5.670;2023-03-25T00:17:54;99933.22;;;12.23;62.22
69624;BME280;56843;52.020;5.670;2023-03-25T00:19:24;99932.09;;;12.24;61.74
69624;BME280;56843;52.020;5.670;2023-03-25T00:20:55;99925.53;;;12.21;62.03
69624;BME280;56843;52.020;5.670;2023-03-25T00:22:26;99930.53;;;12.23;62.16
69624;BME280;56843;52.020;5.670;2023-03-25T00:23:57;99928.66;;;12.23;62.08
69624;BME280;56843;52.020;5.670;2023-03-25T00:25:27;99926.75;;;12.24;61.70
69624;BME280;56843;52.020;5.670;2023-03-25T00:26:58;99931.75;;;12.25;62.05
69624;BME280;56843;52.020;5.670;2023-03-25T00:28:31;99920.63;;;12.23;61.71
69624;BME280;56843;52.020;5.670;2023-03-25T00:30:03;99925.53;;;12.21;61.84
69624;BME280;56843;52.020;5.670;2023-03-25T00:31:33;99926.31;;;12.22;61.83
69624;BME280;56843;52.020;5.670;2023-03-25T00:33:05;99925.53;;;12.21;62.12
69624;BME280;56843;52.020;5.670;2023-03-25T00:34:35;99920.53;;;12.20;62.07
69624;BME280;56843;52.020;5.670;2023-03-25T00:36:11;99935.84;;;12.19;61.89
69624;BME280;56843;52.020;5.670;2023-03-25T00:37:48;99931.59;;;12.18;62.36
69624;BME280;56843;52.020;5.670;2023-03-25T00:39:27;99925.81;;;12.16;62.02
69624;BME280;56843;52.020;5.670;2023-03-25T00:41:22;99934.69;;;12.20;62.06
69624;BME280;56843;52.020;5.670;2023-03-25T00:42:56;99929.63;;;12.15;62.49
69624;BME280;56843;52.020;5.670;2023-03-25T00:44:28;99926.59;;;12.17;62.18
69624;BME280;56843;52.020;5.670;2023-03-25T00:45:58;99918.56;;;12.17;62.12
69624;BME280;56843;52.020;5.670;2023-03-25T00:47:29;99923.94;;;12.17;61.95
69624;BME280;56843;52.020;5.670;2023-03-25T00:49:00;99920.09;;;12.18;62.09
69624;BME280;56843;52.020;5.670;2023-03-25T00:50:31;99924.72;;;12.17;62.14
69624;BME280;56843;52.020;5.670;2023-03-25T00:52:01;99929.63;;;12.15;62.46
69624;BME280;56843;52.020;5.670;2023-03-25T00:53:33;99926.59;;;12.17;62.48
69624;BME280;56843;52.020;5.670;2023-03-25T00:55:04;99935.75;;;12.16;62.31
69624;BME280;56843;52.020;5.670;2023-03-25T00:56:35;99934.97;;;12.15;62.47
69624;BME280;56843;52.020;5.670;2023-03-25T00:58:05;99918.56;;;12.17;62.49
69624;BME280;56843;52.020;5.670;2023-03-25T00:59:35;99925.81;;;12.16;62.54
69624;BME280;56843;52.020;5.670;2023-03-25T01:01:18;99925.47;;;12.18;62.49
69624;BME280;56843;52.020;5.670;2023-03-25T01:02:52;99936.91;;;12.15;62.32
69624;BME280;56843;52.020;5.670;2023-03-25T01:04:23;99931.53;;;12.15;62.50
69624;BME280;56843;52.020;5.670;2023-03-25T01:05:54;99926.94;;;12.15;62.51
69624;BME280;56843;52.020;5.670;2023-03-25T01:07:25;99928.50;;;12.16;62.24
69624;BME280;56843;52.020;5.670;2023-03-25T01:09:00;99933.06;;;12.16;62.43
69624;BME280;56843;52.020;5.670;2023-03-25T01:10:34;99926.59;;;12.17;62.54
69624;BME280;56843;52.020;5.670;2023-03-25T01:12:05;99926.94;;;12.15;62.71
69624;BME280;56843;52.020;5.670;2023-03-25T01:13:35;99923.50;;;12.15;62.27
69624;BME280;56843;52.020;5.670;2023-03-25T01:15:08;99929.97;;;12.14;62.31
69624;BME280;56843;52.020;5.670;2023-03-25T01:16:39;99933.44;;;12.14;62.32
69624;BME280;56843;52.020;5.670;2023-03-25T01:18:09;99933.03;;;12.12;62.60
69624;BME280;56843;52.020;5.670;2023-03-25T01:19:40;99927.66;;;12.12;62.67
69624;BME280;56843;52.020;5.670;2023-03-25T01:21:10;99930.69;;;12.11;62.43
69624;BME280;56843;52.020;5.670;2023-03-25T01:22:41;99929.50;;;12.08;62.64
69624;BME280;56843;52.020;5.670;2023-03-25T01:24:13;99925.31;;;12.11;62.46
69624;BME280;56843;52.020;5.670;2023-03-25T01:25:44;99929.94;;;12.10;62.48
69624;BME280;56843;52.020;5.670;2023-03-25T01:27:15;99934.50;;;12.10;62.66
69624;BME280;56843;52.020;5.670;2023-03-25T01:28:45;99935.63;;;12.09;62.49
69624;BME280;56843;52.020;5.670;2023-03-25T01:30:16;99920.69;;;12.08;62.83
69624;BME280;56843;52.020;5.670;2023-03-25T01:31:47;99930.25;;;12.09;62.72
69624;BME280;56843;52.020;5.670;2023-03-25T01:33:17;99916.88;;;12.09;62.39
69624;BME280;56843;52.020;5.670;2023-03-25T01:34:48;99938.28;;;12.09;62.57
69624;BME280;56843;52.020;5.670;2023-03-25T01:36:18;99923.00;;;12.09;62.59
69624;BME280;56843;52.020;5.670;2023-03-25T01:37:50;99921.81;;;12.07;62.44
69624;BME280;56843;52.020;5.670;2023-03-25T01:39:23;99923.38;;;12.08;62.42
69624;BME280;56843;52.020;5.670;2023-03-25T01:40:55;99916.13;;;12.08;62.32
69624;BME280;56843;52.020;5.670;2023-03-25T01:42:25;99917.25;;;12.07;62.28
69624;BME280;56843;52.020;5.670;2023-03-25T01:45:43;99907.31;;;12.08;62.57
69624;BME280;56843;52.020;5.670;2023-03-25T01:47:17;99906.16;;;12.09;62.49
69624;BME280;56843;52.020;5.670;2023-03-25T01:48:47;99915.75;;;12.10;62.43
69624;BME280;56843;52.020;5.670;2023-03-25T01:50:19;99914.97;;;12.09;62.11
69624;BME280;56843;52.020;5.670;2023-03-25T01:51:54;99912.31;;;12.09;62.14
69624;BME280;56843;52.020;5.670;2023-03-25T01:53:27;99909.63;;;12.09;62.33
69624;BME280;56843;52.020;5.670;2023-03-25T01:55:00;99912.66;;;12.08;62.48
69624;BME280;56843;52.020;5.670;2023-03-25T01:56:34;99916.47;;;12.07;62.61
69624;BME280;56843;52.020;5.670;2023-03-25T01:58:10;99906.13;;;12.05;62.19
69624;BME280;56843;52.020;5.670;2023-03-25T01:59:41;99909.16;;;12.04;62.36
69624;BME280;56843;52.020;5.670;2023-03-25T02:02:53;99908.38;;;12.03;62.35
69624;BME280;56843;52.020;5.670;2023-03-25T02:04:39;99902.31;;;12.06;62.58
69624;BME280;56843;52.020;5.670;2023-03-25T02:06:23;99904.91;;;12.03;62.32
69624;BME280;56843;52.020;5.670;2023-03-25T02:07:56;99903.81;;;12.04;62.38
69624;BME280;56843;52.020;5.670;2023-03-25T02:09:27;99900.75;;;12.05;62.50
69624;BME280;56843;52.020;5.670;2023-03-25T02:10:58;99909.91;;;12.04;62.49
69624;BME280;56843;52.020;5.670;2023-03-25T02:12:29;99906.47;;;12.04;62.19
69624;BME280;56843;52.020;5.670;2023-03-25T02:14:04;99907.22;;;12.04;62.54
69624;BME280;56843;52.020;5.670;2023-03-25T02:26:42;99898.84;;;11.87;62.82
69624;BME280;56843;52.020;5.670;2023-03-25T02:28:36;99906.47;;;11.85;63.04
69624;BME280;56843;52.020;5.670;2023-03-25T02:30:33;99906.41;;;11.81;63.02
69624;BME280;56843;52.020;5.670;2023-03-25T02:32:22;99902.09;;;11.76;63.64
69624;BME280;56843;52.020;5.670;2023-03-25T02:34:15;99904.72;;;11.73;63.59
69624;BME280;56843;52.020;5.670;2023-03-25T02:40:43;99903.53;;;11.70;63.73
69624;BME280;56843;52.020;5.670;2023-03-25T02:42:23;99906.88;;;11.67;63.87
69624;BME280;56843;52.020;5.670;2023-03-25T02:45:30;99909.91;;;11.66;64.17
69624;BME280;56843;52.020;5.670;2023-03-25T02:47:06;99904.56;;;11.66;64.03
69624;BME280;56843;52.020;5.670;2023-03-25T02:49:01;99904.91;;;11.64;63.97
69624;BME280;56843;52.020;5.670;2023-03-25T02:50:39;99907.09;;;11.59;64.34
69624;BME280;56843;52.020;5.670;2023-03-25T02:52:16;99909.00;;;11.58;64.57
69624;BME280;56843;52.020;5.670;2023-03-25T02:53:50;99889.84;;;11.56;64.51
69624;BME280;56843;52.020;5.670;2023-03-25T02:55:22;99899.75;;;11.56;64.67
69624;BME280;56843;52.020;5.670;2023-03-25T02:56:55;99893.63;;;11.55;64.82
69624;BME280;56843;52.020;5.670;2023-03-25T02:58:28;99890.19;;;11.55;64.64
69624;BME280;56843;52.020;5.670;2023-03-25T03:00:00;99895.19;;;11.56;64.49
69624;BME280;56843;52.020;5.670;2023-03-25T03:01:37;99888.28;;;11.55;64.64
69624;BME280;56843;52.020;5.670;2023-03-25T03:03:07;99883.72;;;11.56;64.87
69624;BME280;56843;52.020;5.670;2023-03-25T03:04:49;99895.19;;;11.56;64.96
69624;BME280;56843;52.020;5.670;2023-03-25T03:06:22;99894.75;;;11.54;64.62
69624;BME280;56843;52.020;5.670;2023-03-25T03:10:06;99887.78;;;11.50;64.92
69624;BME280;56843;52.020;5.670;2023-03-25T03:12:13;99893.13;;;11.50;65.02
69624;BME280;56843;52.020;5.670;2023-03-25T03:17:25;99895.72;;;11.46;65.26
69624;BME280;56843;52.020;5.670;2023-03-25T03:19:27;99908.75;;;11.48;65.33
69624;BME280;56843;52.020;5.670;2023-03-25T03:21:11;99906.75;;;11.45;65.14
69624;BME280;56843;52.020;5.670;2023-03-25T03:23:27;99897.94;;;11.44;65.20
69624;BME280;56843;52.020;5.670;2023-03-25T03:26:50;99894.78;;;11.39;65.65
69624;BME280;56843;52.020;5.670;2023-03-25T03:28:52;99895.63;;;11.43;65.44
69624;BME280;56843;52.020;5.670;2023-03-25T03:32:12;99894.44;;;11.40;65.43
69624;BME280;56843;52.020;5.670;2023-03-25T03:35:24;99896.25;;;11.36;66.05
69624;BME280;56843;52.020;5.670;2023-03-25T03:36:56;99888.59;;;11.35;65.79
69624;BME280;56843;52.020;5.670;2023-03-25T03:38:31;99889.69;;;11.34;66.03
69624;BME280;56843;52.020;5.670;2023-03-25T03:40:06;99878.59;;;11.32;66.02
69624;BME280;56843;52.020;5.670;2023-03-25T03:41:42;99882.03;;;11.32;66.08
69624;BME280;56843;52.020;5.670;2023-03-25T03:43:20;99888.16;;;11.33;66.24
69624;BME280;56843;52.020;5.670;2023-03-25T03:45:01;99892.72;;;11.32;66.48
69624;BME280;56843;52.020;5.670;2023-03-25T03:46:36;99887.38;;;11.32;66.17
69624;BME280;56843;52.020;5.670;2023-03-25T03:48:16;99890.84;;;11.33;66.42
69624;BME280;56843;52.020;5.670;2023-03-25T03:49:55;99884.72;;;11.32;66.33
69624;BME280;56843;52.020;5.670;2023-03-25T03:52:16;99883.94;;;11.32;66.18
69624;BME280;56843;52.020;5.670;2023-03-25T03:53:39;99877.06;;;11.31;66.14
69624;BME280;56843;52.020;5.670;2023-03-25T03:55:19;99893.78;;;11.28;66.23
69624;BME280;56843;52.020;5.670;2023-03-25T03:58:39;99881.53;;;11.27;66.33
69624;BME280;56843;52.020;5.670;2023-03-25T04:00:25;99883.50;;;11.30;66.49
69624;BME280;56843;52.020;5.670;2023-03-25T04:01:59;99881.97;;;11.29;66.41
69624;BME280;56843;52.020;5.670;2023-03-25T04:03:36;99880.41;;;11.28;66.31
69624;BME280;56843;52.020;5.670;2023-03-25T04:05:12;99876.63;;;11.29;66.48
69624;BME280;56843;52.020;5.670;2023-03-25T04:07:00;99878.53;;;11.28;66.38
69624;BME280;56843;52.020;5.670;2023-03-25T04:08:39;99876.97;;;11.27;66.62
69624;BME280;56843;52.020;5.670;2023-03-25T04:10:18;99870.09;;;11.26;66.25
69624;BME280;56843;52.020;5.670;2023-03-25T04:11:55;99867.06;;;11.28;66.43
69624;BME280;56843;52.020;5.670;2023-03-25T04:13:32;99859.81;;;11.28;66.58
69624;BME280;56843;52.020;5.670;2023-03-25T04:15:05;99870.56;;;11.32;66.43
69624;BME280;56843;52.020;5.670;2023-03-25T04:16:35;99864.91;;;11.33;66.17
69624;BME280;56843;52.020;5.670;2023-03-25T04:18:09;99868.00;;;11.35;66.49
69624;BME280;56843;52.020;5.670;2023-03-25T04:19:39;99866.44;;;11.34;66.31
69624;BME280;56843;52.020;5.670;2023-03-25T04:21:10;99861.88;;;11.35;66.23
69624;BME280;56843;52.020;5.670;2023-03-25T04:22:44;99860.66;;;11.32;66.29
69624;BME280;56843;52.020;5.670;2023-03-25T04:24:15;99872.56;;;11.35;66.05
69624;BME280;56843;52.020;5.670;2023-03-25T04:25:48;99867.91;;;11.32;65.90
69624;BME280;56843;52.020;5.670;2023-03-25T04:27:22;99859.88;;;11.32;66.39
69624;BME280;56843;52.020;5.670;2023-03-25T04:28:52;99861.78;;;11.31;65.90
69624;BME280;56843;52.020;5.670;2023-03-25T04:30:27;99861.03;;;11.31;66.17
69624;BME280;56843;52.020;5.670;2023-03-25T04:32:00;99857.91;;;11.29;66.28
69624;BME280;56843;52.020;5.670;2023-03-25T04:33:31;99855.25;;;11.29;66.03
69624;BME280;56843;52.020;5.670;2023-03-25T04:35:02;99857.91;;;11.29;66.29
69624;BME280;56843;52.020;5.670;2023-03-25T04:36:33;99867.84;;;11.28;65.97
69624;BME280;56843;52.020;5.670;2023-03-25T04:38:07;99857.13;;;11.28;66.12
69624;BME280;56843;52.020;5.670;2023-03-25T04:39:37;99850.66;;;11.29;66.05
69624;BME280;56843;52.020;5.670;2023-03-25T04:41:09;99859.81;;;11.28;66.33
69624;BME280;56843;52.020;5.670;2023-03-25T04:42:39;99851.00;;;11.28;66.01
69624;BME280;56843;52.020;5.670;2023-03-25T04:44:11;99856.34;;;11.28;66.06
69624;BME280;56843;52.020;5.670;2023-03-25T04:45:43;99857.47;;;11.27;66.20
69624;BME280;56843;52.020;5.670;2023-03-25T04:47:20;99837.59;;;11.24;66.25
69624;BME280;56843;52.020;5.670;2023-03-25T04:48:52;99836.81;;;11.24;65.99
69624;BME280;56843;52.020;5.670;2023-03-25T04:50:26;99843.69;;;11.25;66.22
69624;BME280;56843;52.020;5.670;2023-03-25T04:51:58;99837.16;;;11.22;66.28
69624;BME280;56843;52.020;5.670;2023-03-25T04:53:31;99854.31;;;11.21;66.27
69624;BME280;56843;52.020;5.670;2023-03-25T04:55:01;99851.63;;;11.21;66.18
69624;BME280;56843;52.020;5.670;2023-03-25T04:56:34;99853.53;;;11.21;66.17
69624;BME280;56843;52.020;5.670;2023-03-25T04:58:05;99856.97;;;11.21;66.11
69624;BME280;56843;52.020;5.670;2023-03-25T04:59:36;99847.41;;;11.20;66.38
69624;BME280;56843;52.020;5.670;2023-03-25T05:01:19;99843.63;;;11.21;66.36
69624;BME280;56843;52.020;5.670;2023-03-25T05:02:53;99854.66;;;11.20;66.29
69624;BME280;56843;52.020;5.670;2023-03-25T05:04:24;99855.78;;;11.19;66.29
69624;BME280;56843;52.020;5.670;2023-03-25T05:05:55;99865.00;;;11.21;66.20
69624;BME280;56843;52.020;5.670;2023-03-25T05:07:25;99860.75;;;11.20;66.41
69624;BME280;56843;52.020;5.670;2023-03-25T05:08:59;99867.69;;;11.21;66.43
69624;BME280;56843;52.020;5.670;2023-03-25T05:10:37;99870.34;;;11.21;66.32
69624;BME280;56843;52.020;5.670;2023-03-25T05:12:08;99879.94;;;11.22;66.06
69624;BME280;56843;52.020;5.670;2023-03-25T05:13:40;99882.59;;;11.22;66.35
69624;BME280;56843;52.020;5.670;2023-03-25T05:15:11;99878.38;;;11.21;66.18
69624;BME280;56843;52.020;5.670;2023-03-25T05:16:43;99882.16;;;11.20;66.38
69624;BME280;56843;52.020;5.670;2023-03-25T05:18:15;99869.56;;;11.21;66.28
69624;BME280;56843;52.020;5.670;2023-03-25T05:19:46;99881.72;;;11.18;66.22
69624;BME280;56843;52.020;5.670;2023-03-25T05:21:16;99904.25;;;11.17;66.55
69624;BME280;56843;52.020;5.670;2023-03-25T05:22:47;99899.69;;;11.18;66.62
69624;BME280;56843;52.020;5.670;2023-03-25T05:24:17;99882.09;;;11.17;66.61
69624;BME280;56843;52.020;5.670;2023-03-25T05:25:49;99882.09;;;11.17;66.56
69624;BME280;56843;52.020;5.670;2023-03-25T05:27:20;99878.97;;;11.15;66.47
69624;BME280;56843;52.020;5.670;2023-03-25T05:28:50;99882.75;;;11.14;66.59
69624;BME280;56843;52.020;5.670;2023-03-25T05:30:21;99876.66;;;11.13;66.39
69624;BME280;56843;52.020;5.670;2023-03-25T05:31:52;99880.09;;;11.14;66.56
69624;BME280;56843;52.020;5.670;2023-03-25T05:33:23;99892.69;;;11.13;66.75
69624;BME280;56843;52.020;5.670;2023-03-25T05:34:53;99889.59;;;11.11;66.38
69624;BME280;56843;52.020;5.670;2023-03-25T05:36:23;99886.16;;;11.11;66.68
69624;BME280;56843;52.020;5.670;2023-03-25T05:37:54;99889.94;;;11.09;66.47
69624;BME280;56843;52.020;5.670;2023-03-25T05:39:25;99896.84;;;11.11;66.78
69624;BME280;56843;52.020;5.670;2023-03-25T05:40:55;99889.50;;;11.07;66.42
69624;BME280;56843;52.020;5.670;2023-03-25T05:42:26;99882.16;;;11.04;66.41
69624;BME280;56843;52.020;5.670;2023-03-25T05:44:00;99876.50;;;11.06;66.62
69624;BME280;56843;52.020;5.670;2023-03-25T05:45:30;99857.38;;;11.04;66.61
69624;BME280;56843;52.020;5.670;2023-03-25T05:47:01;99860.72;;;11.01;66.47
69624;BME280;56843;52.020;5.670;2023-03-25T05:48:31;99888.59;;;11.00;66.68
69624;BME280;56843;52.020;5.670;2023-03-25T05:50:02;99887.38;;;10.97;66.79
69624;BME280;56843;52.020;5.670;2023-03-25T05:51:34;99907.19;;;10.96;66.98
69624;BME280;56843;52.020;5.670;2023-03-25T05:53:12;99896.06;;;10.94;66.62
69624;BME280;56843;52.020;5.670;2023-03-25T05:54:43;99899.09;;;10.93;66.67
69624;BME280;56843;52.020;5.670;2023-03-25T05:56:15;99903.66;;;10.92;66.60
69624;BME280;56843;52.020;5.670;2023-03-25T05:57:48;99897.53;;;10.92;66.57
69624;BME280;56843;52.020;5.670;2023-03-25T05:59:19;99900.56;;;10.90;66.59
69624;BME280;56843;52.020;5.670;2023-03-25T06:00:50;99894.09;;;10.91;66.76
69624;BME280;56843;52.020;5.670;2023-03-25T06:02:21;99890.97;;;10.89;66.79
69624;BME280;56843;52.020;5.670;2023-03-25T06:03:51;99897.88;;;10.90;66.61
69624;BME280;56843;52.020;5.670;2023-03-25T06:05:21;99907.00;;;10.89;66.79
69624;BME280;56843;52.020;5.670;2023-03-25T06:06:55;99911.59;;;10.89;66.99
69624;BME280;56843;52.020;5.670;2023-03-25T06:08:26;99914.28;;;10.89;66.95
69624;BME280;56843;52.020;5.670;2023-03-25T06:09:59;99916.94;;;10.89;66.68
69624;BME280;56843;52.020;5.670;2023-03-25T06:11:29;99918.91;;;10.92;67.21
69624;BME280;56843;52.020;5.670;2023-03-25T06:13:00;99918.13;;;10.91;66.96
69624;BME280;56843;52.020;5.670;2023-03-25T06:14:30;99918.13;;;10.91;67.04
69624;BME280;56843;52.020;5.670;2023-03-25T06:16:00;99921.22;;;10.93;67.23
69624;BME280;56843;52.020;5.670;2023-03-25T06:17:32;99911.31;;;10.94;67.21
69624;BME280;56843;52.020;5.670;2023-03-25T06:19:04;99916.66;;;10.94;67.13
69624;BME280;56843;52.020;5.670;2023-03-25T06:20:37;99910.22;;;10.95;66.90
69624;BME280;56843;52.020;5.670;2023-03-25T06:22:09;99919.44;;;10.97;67.11
69624;BME280;56843;52.020;5.670;2023-03-25T06:23:40;99924.00;;;10.97;66.64
69624;BME280;56843;52.020;5.670;2023-03-25T06:25:14;99923.63;;;10.98;66.84
69624;BME280;56843;52.020;5.670;2023-03-25T06:26:49;99927.44;;;10.97;67.11
69624;BME280;56843;52.020;5.670;2023-03-25T06:28:20;99928.97;;;10.98;67.20
69624;BME280;56843;52.020;5.670;2023-03-25T06:29:52;99919.88;;;10.99;66.98
69624;BME280;56843;52.020;5.670;2023-03-25T06:31:24;99915.31;;;11.00;66.87
69624;BME280;56843;52.020;5.670;2023-03-25T06:33:02;99919.09;;;10.99;66.87
69624;BME280;56843;52.020;5.670;2023-03-25T06:34:35;99918.72;;;11.00;67.04
69624;BME280;56843;52.020;5.670;2023-03-25T06:36:06;99919.88;;;10.99;66.84
69624;BME280;56843;52.020;5.670;2023-03-25T06:37:37;99924.44;;;10.99;66.85
69624;BME280;56843;52.020;5.670;2023-03-25T06:39:14;99917.53;;;10.98;67.02
69624;BME280;56843;52.020;5.670;2023-03-25T06:40:44;99924.34;;;10.95;67.05
69624;BME280;56843;52.020;5.670;2023-03-25T06:42:17;99929.75;;;10.99;66.90
69624;BME280;56843;52.020;5.670;2023-03-25T06:44:01;99938.13;;;10.97;66.82
69624;BME280;56843;52.020;5.670;2023-03-25T06:45:49;99928.97;;;10.98;67.11
69624;BME280;56843;52.020;5.670;2023-03-25T06:47:36;99937.34;;;10.97;67.23
69624;BME280;56843;52.020;5.670;2023-03-25T06:49:06;99928.19;;;10.98;67.25
69624;BME280;56843;52.020;5.670;2023-03-25T06:50:37;99932.00;;;10.97;67.08
69624;BME280;56843;52.020;5.670;2023-03-25T06:52:07;99932.78;;;10.97;66.82
69624;BME280;56843;52.020;5.670;2023-03-25T06:53:38;99933.53;;;10.98;67.21
69624;BME280;56843;52.020;5.670;2023-03-25T06:55:08;99934.31;;;10.98;67.02
69624;BME280;56843;52.020;5.670;2023-03-25T06:56:39;99934.00;;;11.00;66.83
69624;BME280;56843;52.020;5.670;2023-03-25T06:58:10;99943.56;;;11.01;66.74
69624;BME280;56843;52.020;5.670;2023-03-25T06:59:41;99941.66;;;11.01;66.72
69624;BME280;56843;52.020;5.670;2023-03-25T07:01:11;99943.19;;;11.02;66.58
69624;BME280;56843;52.020;5.670;2023-03-25T07:02:41;99939.06;;;11.05;66.79
69624;BME280;56843;52.020;5.670;2023-03-25T07:04:12;99942.53;;;11.05;66.46
69624;BME280;56843;52.020;5.670;2023-03-25T07:05:44;99948.72;;;11.09;66.56
69624;BME280;56843;52.020;5.670;2023-03-25T07:07:14;99947.59;;;11.11;66.33
69624;BME280;56843;52.020;5.670;2023-03-25T07:08:45;99938.44;;;11.12;66.25
69624;BME280;56843;52.020;5.670;2023-03-25T07:10:16;99951.50;;;11.13;66.39
69624;BME280;56843;52.020;5.670;2023-03-25T07:11:46;99956.84;;;11.13;66.31
69624;BME280;56843;52.020;5.670;2023-03-25T07:13:17;99946.16;;;11.13;66.10
69624;BME280;56843;52.020;5.670;2023-03-25T07:14:55;99951.13;;;11.15;66.19
69624;BME280;56843;52.020;5.670;2023-03-25T07:16:26;99954.16;;;11.13;66.00
69624;BME280;56843;52.020;5.670;2023-03-25T07:17:57;99944.22;;;11.14;66.32
69624;BME280;56843;52.020;5.670;2023-03-25T07:19:27;99955.34;;;11.16;66.29
69624;BME280;56843;52.020;5.670;2023-03-25T07:20:58;99956.13;;;11.16;66.15
69624;BME280;56843;52.020;5.670;2023-03-25T07:22:29;99947.00;;;11.17;66.20
69624;BME280;56843;52.020;5.670;2023-03-25T07:23:59;99953.44;;;11.16;66.24
69624;BME280;56843;52.020;5.670;2023-03-25T07:25:30;99950.00;;;11.16;66.25
69624;BME280;56843;52.020;5.670;2023-03-25T07:27:00;99951.13;;;11.15;66.28
69624;BME280;56843;52.020;5.670;2023-03-25T07:28:32;99951.81;;;11.12;66.55
69624;BME280;56843;52.020;5.670;2023-03-25T07:30:04;99948.72;;;11.09;66.30
69624;BME280;56843;52.020;5.670;2023-03-25T07:31:35;99947.59;;;11.11;66.54
69624;BME280;56843;52.020;5.670;2023-03-25T07:33:05;99957.16;;;11.12;66.67
69624;BME280;56843;52.020;5.670;2023-03-25T07:34:36;99955.69;;;11.14;66.41
69624;BME280;56843;52.020;5.670;2023-03-25T07:36:10;99966.81;;;11.16;66.85
69624;BME280;56843;52.020;5.670;2023-03-25T07:37:41;99969.31;;;11.25;66.61
69624;BME280;56843;52.020;5.670;2023-03-25T07:39:11;99968.78;;;11.35;66.12
69624;BME280;56843;52.020;5.670;2023-03-25T07:40:42;99961.44;;;11.47;66.16
69624;BME280;56843;52.020;5.670;2023-03-25T07:42:12;99959.00;;;11.58;65.76
69624;BME280;56843;52.020;5.670;2023-03-25T07:44:12;99968.03;;;11.69;65.41
69624;BME280;56843;52.020;5.670;2023-03-25T07:45:46;99965.63;;;11.79;65.47
69624;BME280;56843;52.020;5.670;2023-03-25T07:47:16;99958.91;;;11.89;65.30
69624;BME280;56843;52.020;5.670;2023-03-25T07:48:47;99956.81;;;11.98;65.27
69624;BME280;56843;52.020;5.670;2023-03-25T07:50:18;99968.09;;;12.07;65.21
69624;BME280;56843;52.020;5.670;2023-03-25T07:51:50;99959.06;;;12.15;65.33
69624;BME280;56843;52.020;5.670;2023-03-25T07:53:20;99950.06;;;12.23;64.81
69624;BME280;56843;52.020;5.670;2023-03-25T07:54:51;99964.69;;;12.29;64.75
69624;BME280;56843;52.020;5.670;2023-03-25T07:56:21;99960.25;;;12.37;64.38
69624;BME280;56843;52.020;5.670;2023-03-25T07:57:52;99963.41;;;12.42;64.57
69624;BME280;56843;52.020;5.670;2023-03-25T07:59:23;99967.34;;;12.48;64.31
69624;BME280;56843;52.020;5.670;2023-03-25T08:00:56;99963.28;;;12.54;64.53
69624;BME280;56843;52.020;5.670;2023-03-25T08:02:27;99967.19;;;12.61;64.58
69624;BME280;56843;52.020;5.670;2023-03-25T08:03:57;99970.72;;;12.65;64.13
69624;BME280;56843;52.020;5.670;2023-03-25T08:05:28;99969.28;;;12.71;64.15
69624;BME280;56843;52.020;5.670;2023-03-25T08:06:59;99964.00;;;12.74;64.00
69624;BME280;56843;52.020;5.670;2023-03-25T08:08:30;99977.88;;;12.80;64.19
69624;BME280;56843;52.020;5.670;2023-03-25T08:10:00;99968.00;;;12.84;64.19
69624;BME280;56843;52.020;5.670;2023-03-25T08:11:31;99982.59;;;12.86;64.07
69624;BME280;56843;52.020;5.670;2023-03-25T08:13:02;99980.00;;;12.90;64.20
69624;BME280;56843;52.020;5.670;2023-03-25T08:14:32;99978.13;;;12.94;64.04
69624;BME280;56843;52.020;5.670;2023-03-25T08:16:09;99975.16;;;12.99;63.77
69624;BME280;56843;52.020;5.670;2023-03-25T08:17:41;99982.84;;;13.00;63.74
69624;BME280;56843;52.020;5.670;2023-03-25T08:19:11;99976.78;;;13.03;63.97
69624;BME280;56843;52.020;5.670;2023-03-25T08:20:42;99982.97;;;13.07;63.99
69624;BME280;56843;52.020;5.670;2023-03-25T08:22:12;99973.44;;;13.10;63.91
69624;BME280;56843;52.020;5.670;2023-03-25T08:23:43;99988.00;;;13.12;63.63
69624;BME280;56843;52.020;5.670;2023-03-25T08:25:13;99974.25;;;13.14;63.97
69624;BME280;56843;52.020;5.670;2023-03-25T08:26:44;99975.09;;;13.18;63.86
69624;BME280;56843;52.020;5.670;2023-03-25T08:28:16;99980.06;;;13.19;63.67
69624;BME280;56843;52.020;5.670;2023-03-25T08:29:47;99979.75;;;13.21;63.57
69624;BME280;56843;52.020;5.670;2023-03-25T08:31:24;99984.72;;;13.22;63.53
69624;BME280;56843;52.020;5.670;2023-03-25T08:32:55;99984.78;;;13.26;63.55
69624;BME280;56843;52.020;5.670;2023-03-25T08:34:26;99983.66;;;13.27;63.38
69624;BME280;56843;52.020;5.670;2023-03-25T08:35:56;99985.97;;;13.28;63.44
69624;BME280;56843;52.020;5.670;2023-03-25T08:37:27;99989.44;;;13.29;63.11
69624;BME280;56843;52.020;5.670;2023-03-25T08:38:59;99978.00;;;13.32;63.46
69624;BME280;56843;52.020;5.670;2023-03-25T08:40:36;99988.34;;;13.34;63.51
69624;BME280;56843;52.020;5.670;2023-03-25T08:42:07;99985.72;;;13.37;63.50
69624;BME280;56843;52.020;5.670;2023-03-25T08:43:38;99987.69;;;13.40;63.23
69624;BME280;56843;52.020;5.670;2023-03-25T08:45:09;99984.28;;;13.43;63.10
69624;BME280;56843;52.020;5.670;2023-03-25T08:46:40;99985.47;;;13.46;63.20
69624;BME280;56843;52.020;5.670;2023-03-25T08:48:10;99985.53;;;13.49;63.08
69624;BME280;56843;52.020;5.670;2023-03-25T08:49:41;99987.84;;;13.51;63.22